Time;durP1;ratioP1;P1;durP2;ratioP2;P2;SDS_P1;SDS_P2;PMS_P1;PMS_P2;Temp;Humidity;BMP_temperature;BMP_pressure;BME280_temperature;BME280_humidity;BME280_pressure;Samples;Min_cycle;Max_cycle;Signal;HPM_P1;HPM_P2
2022/06/12 00:00:06;;;;;;;16.73;6.17;;;;;;;12.31;99.69;102078.53;171347;28;1077;-67
2022/06/12 00:00:18;;;;;;;17.13;6.22;;;;;;;12.32;99.53;102072.41;171360;28;1247;-67
2022/06/12 00:00:28;;;;;;;19.54;6.29;;;;;;;12.30;99.59;102077.69;171355;28;1246;-67
2022/06/12 00:00:35;;;;;;;22.30;6.50;;;;;;;12.29;99.63;102075.97;170592;29;1469;-67
2022/06/12 00:00:41;;;;;;;22.20;6.40;;;;;;;12.29;99.20;102078.59;170761;29;963;-67
2022/06/12 00:00:49;;;;;;;21.33;6.40;;;;;;;12.30;99.38;102082.94;170550;28;1563;-67
2022/06/12 00:00:56;;;;;;;22.40;6.50;;;;;;;12.29;99.60;102081.22;170716;29;872;-67
2022/06/12 00:01:02;;;;;;;20.50;6.40;;;;;;;12.28;99.24;102084.72;170601;29;1611;-67
2022/06/12 00:01:10;;;;;;;19.30;6.50;;;;;;;12.28;99.24;102082.09;170690;29;947;-67
2022/06/12 00:01:16;;;;;;;17.20;6.50;;;;;;;12.28;99.47;102079.47;170683;29;975;-67
2022/06/12 00:01:23;;;;;;;17.13;6.30;;;;;;;12.28;99.76;102076.88;170699;29;896;-67
2022/06/12 00:01:29;;;;;;;19.27;6.32;;;;;;;12.28;99.31;102073.41;170620;28;1026;-67
2022/06/12 00:01:35;;;;;;;18.36;6.12;;;;;;;12.27;99.31;102072.53;170716;29;962;-67
2022/06/12 00:01:40;;;;;;;18.10;6.10;;;;;;;12.29;99.36;102080.34;170738;29;836;-66
2022/06/12 00:01:46;;;;;;;18.47;6.10;;;;;;;12.28;99.74;102074.25;170690;29;914;-67
2022/06/12 00:01:51;;;;;;;17.45;6.03;;;;;;;12.29;99.51;102075.13;170723;29;1105;-67
2022/06/12 00:01:57;;;;;;;15.60;6.27;;;;;;;12.28;99.66;102078.66;170712;29;852;-67
2022/06/12 00:02:03;;;;;;;15.77;6.22;;;;;;;12.27;99.03;102075.16;170685;29;920;-67
2022/06/12 00:02:08;;;;;;;15.90;6.15;;;;;;;12.27;99.53;102080.41;170620;29;1281;-67
2022/06/12 00:02:14;;;;;;;16.00;6.20;;;;;;;12.27;99.27;102067.31;170692;29;907;-67
2022/06/12 00:02:20;;;;;;;15.85;6.20;;;;;;;12.28;99.00;102073.41;170684;29;938;-67
2022/06/12 00:02:26;;;;;;;17.30;6.05;;;;;;;12.27;99.55;102077.78;170609;29;1231;-67
2022/06/12 00:02:32;;;;;;;19.27;6.18;;;;;;;12.27;99.23;102077.78;170863;28;1069;-67
2022/06/12 00:02:38;;;;;;;19.73;6.25;;;;;;;12.28;99.40;102073.41;171364;28;765;-67
2022/06/12 00:02:44;;;;;;;21.48;6.30;;;;;;;12.29;99.51;102077.72;170597;29;742;-67
2022/06/12 00:02:49;;;;;;;22.45;6.30;;;;;;;12.28;99.57;102076.03;170018;29;944;-67
2022/06/12 00:02:59;;;;;;;23.23;6.53;;;;;;;12.28;99.65;102073.41;170011;29;1081;-67
2022/06/12 00:03:11;;;;;;;22.96;6.56;;;;;;;12.26;99.09;102081.31;170048;29;1163;-67
2022/06/12 00:03:19;;;;;;;23.05;6.64;;;;;;;12.26;99.46;102076.06;170597;29;1528;-67
2022/06/12 00:03:28;;;;;;;20.40;6.57;;;;;;;12.25;99.55;102074.31;170709;29;901;-67
2022/06/12 00:03:34;;;;;;;19.48;6.55;;;;;;;12.26;99.15;102075.19;170673;29;968;-67
2022/06/12 00:03:41;;;;;;;18.43;6.60;;;;;;;12.25;99.09;102076.09;170710;29;872;-67
2022/06/12 00:03:48;;;;;;;17.64;6.50;;;;;;;12.25;99.68;102074.31;170702;29;908;-67
2022/06/12 00:03:53;;;;;;;17.73;6.30;;;;;;;12.26;99.64;102076.06;170716;29;963;-67
2022/06/12 00:03:59;;;;;;;17.70;6.23;;;;;;;12.26;99.91;102076.06;170713;29;918;-67
2022/06/12 00:04:04;;;;;;;16.55;6.07;;;;;;;12.26;99.19;102076.06;170695;29;1006;-67
2022/06/12 00:04:10;;;;;;;16.92;6.10;;;;;;;12.27;99.42;102075.16;170699;29;936;-67
2022/06/12 00:04:15;;;;;;;17.87;6.20;;;;;;;12.27;99.20;102072.53;170678;29;1105;-67
2022/06/12 00:04:21;;;;;;;16.80;6.18;;;;;;;12.28;99.85;102079.47;170694;29;856;-67
2022/06/12 00:04:27;;;;;;;15.37;6.20;;;;;;;12.28;99.61;102073.41;170650;29;700;-67
2022/06/12 00:04:32;;;;;;;15.77;6.28;;;;;;;12.27;99.64;102067.31;170722;29;833;-67
2022/06/12 00:04:38;;;;;;;15.57;6.23;;;;;;;12.27;99.27;102074.28;170716;29;919;-68
2022/06/12 00:04:43;;;;;;;14.77;6.22;;;;;;;12.27;99.57;102067.31;171221;28;994;-67
2022/06/12 00:04:49;;;;;;;14.57;6.40;;;;;;;12.27;99.42;102072.53;171364;28;900;-67
2022/06/12 00:04:54;;;;;;;16.45;6.53;;;;;;;12.26;99.07;102070.84;171329;28;1026;-66
2022/06/12 00:05:00;;;;;;;16.53;6.40;;;;;;;12.27;99.74;102072.53;171264;28;970;-67
2022/06/12 00:05:06;;;;;;;16.52;6.55;;;;;;;12.27;99.51;102077.78;171290;28;911;-67
2022/06/12 00:05:16;;;;;;;17.35;6.60;;;;;;;12.26;99.85;102070.84;171407;28;986;-67
2022/06/12 00:05:26;;;;;;;17.19;6.31;;;;;;;12.27;99.92;102072.53;170541;29;1414;-67
2022/06/12 00:05:37;;;;;;;19.05;6.49;;;;;;;12.28;99.67;102073.41;170668;29;2279;-67
2022/06/12 00:05:46;;;;;;;19.19;6.52;;;;;;;12.28;99.21;102069.00;170720;29;1243;-67
2022/06/12 00:05:56;;;;;;;18.11;6.55;;;;;;;12.28;99.17;102065.56;170656;29;1153;-67
2022/06/12 00:06:03;;;;;;;15.79;6.30;;;;;;;12.27;99.91;102075.16;170628;29;1436;-67
2022/06/12 00:06:10;;;;;;;16.02;6.38;;;;;;;12.28;99.47;102079.47;170674;29;939;-67
2022/06/12 00:06:19;;;;;;;16.93;6.53;;;;;;;12.27;99.32;102071.66;170640;29;1895;-67
2022/06/12 00:06:26;;;;;;;19.90;6.76;;;;;;;12.28;99.41;102068.16;170712;29;1068;-67
2022/06/12 00:06:31;;;;;;;20.44;6.82;;;;;;;12.26;99.28;102070.84;170703;29;1045;-67
2022/06/12 00:06:37;;;;;;;19.30;6.80;;;;;;;12.26;99.68;102065.59;170651;29;885;-67
2022/06/12 00:06:43;;;;;;;18.80;6.73;;;;;;;12.26;99.68;102068.22;170739;29;860;-67
2022/06/12 00:06:48;;;;;;;17.58;6.55;;;;;;;12.27;99.56;102076.91;170691;29;932;-67
2022/06/12 00:06:54;;;;;;;16.23;6.32;;;;;;;12.26;99.38;102070.84;170703;29;903;-67
2022/06/12 00:06:59;;;;;;;16.20;6.20;;;;;;;12.27;99.79;102069.91;170700;29;1030;-67
2022/06/12 00:07:05;;;;;;;16.88;6.03;;;;;;;12.27;100.00;102071.66;170591;29;924;-67
2022/06/12 00:07:10;;;;;;;17.53;6.10;;;;;;;12.28;99.82;102076.03;170680;29;880;-67
2022/06/12 00:07:17;;;;;;;17.98;6.20;;;;;;;12.26;99.38;102065.59;170697;29;975;-67
2022/06/12 00:07:23;;;;;;;17.90;6.17;;;;;;;12.27;99.54;102075.16;170714;29;903;-67
2022/06/12 00:07:28;;;;;;;17.45;6.28;;;;;;;12.26;99.24;102065.59;170616;29;1170;-67
2022/06/12 00:07:34;;;;;;;17.13;6.25;;;;;;;12.26;99.69;102068.22;170698;29;857;-67
2022/06/12 00:07:41;;;;;;;16.73;6.30;;;;;;;12.26;99.60;102064.72;170696;29;1018;-67
2022/06/12 00:07:46;;;;;;;16.12;6.22;;;;;;;12.26;99.44;102065.59;170704;29;990;-67
2022/06/12 00:07:52;;;;;;;15.90;6.35;;;;;;;12.26;99.54;102070.84;170704;29;861;-67
2022/06/12 00:07:58;;;;;;;16.80;6.33;;;;;;;12.27;99.88;102069.91;170691;29;932;-67
2022/06/12 00:08:06;;;;;;;16.92;6.20;;;;;;;12.26;99.47;102065.59;170703;29;893;-67
2022/06/12 00:08:12;;;;;;;16.73;6.03;;;;;;;12.27;99.67;102072.53;170717;29;967;-67
2022/06/12 00:08:21;;;;;;;17.22;5.88;;;;;;;12.26;99.70;102065.59;170595;29;1164;-67
2022/06/12 00:08:30;;;;;;;16.17;5.73;;;;;;;12.26;99.73;102076.06;170724;29;968;-67
2022/06/12 00:08:39;;;;;;;14.23;5.80;;;;;;;12.27;99.87;102071.66;170656;29;1173;-67
2022/06/12 00:08:45;;;;;;;14.33;6.13;;;;;;;12.26;99.89;102065.59;170757;29;954;-67
2022/06/12 00:08:51;;;;;;;14.88;6.25;;;;;;;12.27;99.60;102066.44;170711;29;923;-67
2022/06/12 00:08:56;;;;;;;15.27;6.35;;;;;;;12.27;99.71;102071.66;170621;29;962;-67
2022/06/12 00:09:02;;;;;;;16.08;6.47;;;;;;;12.27;99.53;102066.44;170743;29;855;-67
2022/06/12 00:09:09;;;;;;;16.80;6.63;;;;;;;12.27;99.53;102067.31;170689;29;907;-67
2022/06/12 00:09:16;;;;;;;16.53;6.40;;;;;;;12.26;99.78;102070.84;170680;29;951;-67
2022/06/12 00:09:21;;;;;;;16.33;6.50;;;;;;;12.27;100.00;102072.53;170734;29;884;-67
2022/06/12 00:09:27;;;;;;;16.80;6.57;;;;;;;12.28;99.38;102071.63;170683;29;979;-67
2022/06/12 00:09:32;;;;;;;18.17;6.73;;;;;;;12.28;99.99;102071.63;170708;29;1084;-67
2022/06/12 00:09:38;;;;;;;17.67;6.80;;;;;;;12.28;99.55;102073.41;170694;29;879;-67
2022/06/12 00:09:44;;;;;;;17.97;6.83;;;;;;;12.27;99.52;102063.81;170749;29;907;-67
2022/06/12 00:09:50;;;;;;;18.24;6.68;;;;;;;12.27;99.56;102072.53;170693;29;978;-67
2022/06/12 00:09:55;;;;;;;17.43;6.57;;;;;;;12.27;99.42;102069.06;170704;29;951;-67
2022/06/12 00:10:01;;;;;;;17.23;6.43;;;;;;;12.26;99.74;102070.84;170660;29;875;-67
2022/06/12 00:10:09;;;;;;;18.10;6.23;;;;;;;12.28;99.93;102068.16;170663;29;848;-67
2022/06/12 00:10:15;;;;;;;17.47;6.17;;;;;;;12.27;99.48;102072.53;170722;29;1140;-67
2022/06/12 00:10:21;;;;;;;16.44;6.20;;;;;;;12.27;99.38;102067.31;170703;29;989;-67
2022/06/12 00:10:27;;;;;;;18.30;6.18;;;;;;;12.27;99.45;102061.19;170719;29;1081;-67
2022/06/12 00:10:35;;;;;;;17.03;6.10;;;;;;;12.27;100.00;102069.91;170710;29;915;-67
2022/06/12 00:10:45;;;;;;;16.13;6.21;;;;;;;12.27;99.91;102067.31;170712;29;1059;-67
2022/06/12 00:10:53;;;;;;;16.24;6.28;;;;;;;12.26;99.51;102065.59;170674;29;1165;-67
2022/06/12 00:11:02;;;;;;;14.28;6.40;;;;;;;12.27;99.87;102071.66;170745;29;1094;-67
2022/06/12 00:11:12;;;;;;;14.79;6.33;;;;;;;12.27;99.83;102063.81;170734;28;1074;-67
2022/06/12 00:11:19;;;;;;;14.25;6.07;;;;;;;12.26;100.00;102070.84;171227;28;1417;-67
2022/06/12 00:11:27;;;;;;;14.57;5.87;;;;;;;12.27;99.72;102071.66;171315;28;1009;-67
2022/06/12 00:11:34;;;;;;;14.58;5.78;;;;;;;12.26;100.00;102065.59;171365;28;999;-67
2022/06/12 00:11:41;;;;;;;14.60;5.86;;;;;;;12.26;100.00;102068.22;171338;28;947;-67
2022/06/12 00:11:47;;;;;;;16.88;5.94;;;;;;;12.26;99.78;102068.22;171361;28;979;-67
2022/06/12 00:11:53;;;;;;;17.52;5.90;;;;;;;12.25;99.65;102074.31;171359;28;1074;-67
2022/06/12 00:11:58;;;;;;;17.27;5.90;;;;;;;12.25;100.00;102063.03;171350;28;1042;-67
2022/06/12 00:12:05;;;;;;;16.13;5.85;;;;;;;12.25;100.00;102063.03;171351;28;935;-67
2022/06/12 00:12:11;;;;;;;15.83;5.70;;;;;;;12.24;100.00;102067.38;171396;28;938;-67
2022/06/12 00:12:16;;;;;;;14.47;5.77;;;;;;;12.24;100.00;102064.78;171353;28;1085;-67
2022/06/12 00:12:22;;;;;;;13.05;5.78;;;;;;;12.24;99.58;102067.38;171393;28;939;-67
2022/06/12 00:12:28;;;;;;;13.93;5.93;;;;;;;12.25;99.96;102069.09;170652;29;1484;-67
2022/06/12 00:12:34;;;;;;;13.40;6.00;;;;;;;12.24;100.00;102067.38;170707;29;900;-67
2022/06/12 00:12:44;;;;;;;13.36;6.00;;;;;;;12.26;99.91;102070.84;170675;29;982;-67
2022/06/12 00:12:50;;;;;;;13.80;6.04;;;;;;;12.26;99.91;102067.34;170665;29;1295;-67
2022/06/12 00:12:55;;;;;;;15.52;6.05;;;;;;;12.25;99.53;102069.09;170666;29;1090;-67
2022/06/12 00:13:03;;;;;;;15.23;5.90;;;;;;;12.26;99.44;102062.13;170688;29;920;-67
2022/06/12 00:13:12;;;;;;;17.10;6.03;;;;;;;12.25;99.60;102069.09;170717;29;904;-67
2022/06/12 00:13:25;;;;;;;17.54;6.01;;;;;;;12.26;99.47;102068.22;170564;29;1172;-67
2022/06/12 00:13:37;;;;;;;17.76;6.06;;;;;;;12.26;99.82;102076.06;170677;29;1418;-67
2022/06/12 00:13:53;;;;;;;17.23;5.96;;;;;;;12.27;99.71;102071.66;170719;29;2176;-67
2022/06/12 00:14:03;;;;;;;15.15;5.89;;;;;;;12.26;100.00;102068.22;170649;29;1245;-67
2022/06/12 00:14:11;;;;;;;15.57;6.07;;;;;;;12.27;99.72;102071.66;170703;29;955;-67
2022/06/12 00:14:17;;;;;;;15.92;6.17;;;;;;;12.26;99.57;102072.59;170721;29;1015;-67
2022/06/12 00:14:23;;;;;;;16.76;6.18;;;;;;;12.25;99.78;102069.09;170705;29;981;-67
2022/06/12 00:14:29;;;;;;;16.67;6.10;;;;;;;12.25;99.86;102063.88;170662;29;1978;-67
2022/06/12 00:14:34;;;;;;;16.23;6.00;;;;;;;12.25;99.83;102069.09;170682;29;1280;-67
2022/06/12 00:14:41;;;;;;;14.35;5.97;;;;;;;12.26;99.63;102070.84;170757;29;873;-67
2022/06/12 00:14:47;;;;;;;14.52;6.03;;;;;;;12.25;100.00;102069.09;170644;29;1075;-67
2022/06/12 00:14:52;;;;;;;14.65;5.93;;;;;;;12.26;100.00;102067.34;170676;29;947;-67
2022/06/12 00:14:58;;;;;;;14.20;5.80;;;;;;;12.26;100.00;102065.59;170665;29;872;-67
2022/06/12 00:15:05;;;;;;;13.80;5.80;;;;;;;12.26;99.42;102062.97;170683;29;934;-67
2022/06/12 00:15:15;;;;;;;14.48;5.80;;;;;;;12.27;99.70;102071.66;170700;29;959;-67
2022/06/12 00:15:26;;;;;;;13.78;5.78;;;;;;;12.27;99.38;102069.91;170572;29;1252;-67
2022/06/12 00:15:32;;;;;;;13.86;5.89;;;;;;;12.28;99.80;102071.63;170676;29;1169;-67
2022/06/12 00:15:38;;;;;;;13.95;6.03;;;;;;;12.28;99.72;102073.41;170639;29;1313;-67
2022/06/12 00:15:44;;;;;;;13.78;5.98;;;;;;;12.29;99.80;102070.75;170628;29;1090;-67
2022/06/12 00:15:50;;;;;;;13.77;6.03;;;;;;;12.28;99.83;102069.00;170707;29;919;-67
2022/06/12 00:15:57;;;;;;;13.87;5.90;;;;;;;12.29;100.00;102070.75;170687;29;848;-67
2022/06/12 00:16:05;;;;;;;14.84;5.90;;;;;;;12.30;99.96;102074.19;170694;29;963;-67
2022/06/12 00:16:13;;;;;;;16.27;5.80;;;;;;;12.29;99.92;102075.97;170726;29;784;-67
2022/06/12 00:16:20;;;;;;;16.78;5.80;;;;;;;12.30;99.61;102072.44;170674;29;959;-67
2022/06/12 00:16:30;;;;;;;16.43;5.80;;;;;;;12.30;99.43;102072.44;169954;29;1489;-67
2022/06/12 00:16:36;;;;;;;16.27;6.01;;;;;;;12.30;99.45;102074.19;170008;29;1217;-67
2022/06/12 00:16:45;;;;;;;16.40;6.07;;;;;;;12.28;99.65;102069.00;169976;29;1308;-67
2022/06/12 00:16:52;;;;;;;16.33;6.04;;;;;;;12.29;99.83;102075.13;170680;29;1054;-67
2022/06/12 00:16:58;;;;;;;16.10;6.13;;;;;;;12.28;99.85;102074.25;170703;29;962;-67
2022/06/12 00:17:04;;;;;;;15.15;6.07;;;;;;;12.28;99.79;102074.25;170682;29;859;-67
2022/06/12 00:17:09;;;;;;;14.90;6.10;;;;;;;12.28;99.89;102069.00;170595;29;1007;-67
2022/06/12 00:17:15;;;;;;;14.93;6.32;;;;;;;12.29;100.00;102069.88;169942;29;829;-67
2022/06/12 00:17:20;;;;;;;15.07;6.33;;;;;;;12.29;99.82;102069.88;170020;29;1050;-67
2022/06/12 00:17:26;;;;;;;15.10;6.25;;;;;;;12.28;99.46;102071.63;170062;29;861;-67
2022/06/12 00:17:31;;;;;;;15.03;6.50;;;;;;;12.29;99.68;102068.13;169966;29;845;-67
2022/06/12 00:17:38;;;;;;;14.15;6.45;;;;;;;12.30;99.66;102071.59;170024;29;857;-67
2022/06/12 00:17:45;;;;;;;13.90;6.30;;;;;;;12.30;99.91;102068.97;170089;29;900;-67
2022/06/12 00:17:52;;;;;;;13.88;6.38;;;;;;;12.29;100.00;102073.38;170033;29;1017;-67
2022/06/12 00:17:59;;;;;;;13.73;6.43;;;;;;;12.29;99.90;102065.50;170055;29;964;-67
2022/06/12 00:18:05;;;;;;;14.47;6.22;;;;;;;12.30;99.74;102075.06;170027;29;966;-67
2022/06/12 00:18:11;;;;;;;16.05;6.30;;;;;;;12.30;99.60;102072.44;170029;29;947;-67
2022/06/12 00:18:17;;;;;;;15.98;6.50;;;;;;;12.30;100.00;102072.44;169315;29;1616;-67
2022/06/12 00:18:24;;;;;;;16.20;6.30;;;;;;;12.30;100.00;102071.59;169531;29;952;-67
2022/06/12 00:18:30;;;;;;;15.75;6.22;;;;;;;12.30;99.66;102072.44;169987;29;908;-67
2022/06/12 00:18:37;;;;;;;14.27;6.13;;;;;;;12.30;100.00;102064.59;170003;29;1002;-67
2022/06/12 00:18:43;;;;;;;13.30;6.04;;;;;;;12.32;99.64;102070.63;170029;29;954;-67
2022/06/12 00:18:50;;;;;;;12.45;6.03;;;;;;;12.32;99.97;102068.00;170037;29;932;-68
2022/06/12 00:18:55;;;;;;;11.90;5.97;;;;;;;12.32;100.00;102065.41;170046;29;1070;-67
2022/06/12 00:19:03;;;;;;;13.20;6.00;;;;;;;12.33;99.80;102071.50;170029;29;920;-67
2022/06/12 00:19:09;;;;;;;13.77;6.10;;;;;;;12.33;99.71;102063.66;170044;29;988;-67
2022/06/12 00:19:15;;;;;;;14.77;6.00;;;;;;;12.34;100.00;102068.84;170550;29;1141;-67
2022/06/12 00:19:22;;;;;;;15.80;5.87;;;;;;;12.33;99.42;102072.38;170695;29;863;-67
2022/06/12 00:19:30;;;;;;;17.90;6.00;;;;;;;12.33;99.69;102072.38;170700;29;1065;-67
2022/06/12 00:19:35;;;;;;;18.05;5.78;;;;;;;12.33;99.94;102072.38;170520;28;1446;-67
2022/06/12 00:19:44;;;;;;;18.80;5.63;;;;;;;12.33;99.58;102067.13;170622;29;840;-67
2022/06/12 00:19:50;;;;;;;19.03;5.70;;;;;;;12.33;99.85;102067.13;170704;29;888;-67
2022/06/12 00:19:56;;;;;;;18.92;5.74;;;;;;;12.33;99.84;102066.25;170692;29;919;-67
2022/06/12 00:20:02;;;;;;;16.75;5.90;;;;;;;12.32;99.42;102062.78;170702;29;1042;-67
2022/06/12 00:20:11;;;;;;;16.27;6.00;;;;;;;12.32;100.00;102070.63;170690;29;982;-67
2022/06/12 00:20:19;;;;;;;13.43;6.10;;;;;;;12.33;100.00;102064.50;171281;28;1026;-67
2022/06/12 00:20:26;;;;;;;13.04;6.22;;;;;;;12.33;100.00;102067.13;171340;28;931;-67
2022/06/12 00:20:33;;;;;;;14.17;6.10;;;;;;;12.33;99.41;102067.13;171330;28;1078;-67
2022/06/12 00:20:39;;;;;;;15.70;6.15;;;;;;;12.33;99.73;102063.66;171370;28;982;-67
2022/06/12 00:20:45;;;;;;;16.18;6.10;;;;;;;12.31;99.50;102068.94;171396;28;955;-67
2022/06/12 00:21:10;;;;;;;14.98;6.05;;;;;;;12.32;100.00;102068.00;171342;28;1045;-67
2022/06/12 00:21:16;;;;;;;14.85;6.13;;;;;;;12.31;99.99;102068.94;171382;28;1235;-67
2022/06/12 00:21:22;;;;;;;14.70;6.10;;;;;;;12.31;100.00;102066.31;171389;28;906;-67
2022/06/12 00:21:31;;;;;;;13.85;6.07;;;;;;;12.30;99.82;102072.44;171293;28;900;-67
2022/06/12 00:21:37;;;;;;;13.11;6.35;;;;;;;12.31;100.00;102068.06;171283;28;1160;-67
2022/06/12 00:21:43;;;;;;;13.20;6.68;;;;;;;12.29;100.00;102067.25;171310;28;899;-67
2022/06/12 00:21:50;;;;;;;14.68;6.82;;;;;;;12.29;100.00;102065.50;171327;28;1097;-67
2022/06/12 00:21:58;;;;;;;15.46;6.82;;;;;;;12.30;100.00;102066.34;171322;28;1078;-67
2022/06/12 00:22:04;;;;;;;16.32;6.84;;;;;;;12.30;100.00;102069.84;171345;28;1023;-67
2022/06/12 00:22:09;;;;;;;17.13;6.70;;;;;;;12.30;100.00;102069.84;171385;28;1129;-67
2022/06/12 00:22:17;;;;;;;16.80;6.47;;;;;;;12.29;100.00;102065.50;171392;28;924;-67
2022/06/12 00:22:23;;;;;;;17.07;6.40;;;;;;;12.30;100.00;102064.59;170484;29;1369;-67
2022/06/12 00:22:29;;;;;;;16.73;6.40;;;;;;;12.29;100.00;102065.50;170626;28;1539;-67
2022/06/12 00:22:34;;;;;;;16.03;6.30;;;;;;;12.30;100.00;102067.22;170680;29;1079;-67
2022/06/12 00:22:42;;;;;;;15.98;6.35;;;;;;;12.29;100.00;102060.28;170665;29;900;-67
2022/06/12 00:22:48;;;;;;;15.08;6.47;;;;;;;12.30;100.00;102067.22;170739;29;1074;-67
2022/06/12 00:22:55;;;;;;;15.25;6.47;;;;;;;12.31;100.00;102062.81;170692;29;887;-67
2022/06/12 00:23:09;;;;;;;15.78;6.34;;;;;;;12.30;100.00;102069.84;170691;29;912;-67
2022/06/12 00:23:16;;;;;;;14.50;6.04;;;;;;;12.31;100.00;102066.31;170696;29;1245;-67
2022/06/12 00:23:22;;;;;;;13.70;5.83;;;;;;;12.31;99.92;102062.81;170720;29;963;-67
2022/06/12 00:23:27;;;;;;;13.90;5.95;;;;;;;12.30;100.00;102061.97;170682;29;1050;-67
2022/06/12 00:23:33;;;;;;;14.43;6.13;;;;;;;12.30;100.00;102069.84;170684;29;816;-67
2022/06/12 00:23:44;;;;;;;14.98;6.25;;;;;;;12.31;100.00;102068.94;170678;29;923;-67
2022/06/12 00:23:58;;;;;;;15.46;6.40;;;;;;;12.30;99.77;102067.22;170573;28;1240;-67
2022/06/12 00:24:10;;;;;;;14.56;6.18;;;;;;;12.30;100.00;102064.59;170678;29;1240;-67
2022/06/12 00:24:19;;;;;;;15.01;6.02;;;;;;;12.30;100.00;102069.84;170680;29;1262;-67
2022/06/12 00:24:26;;;;;;;16.80;6.20;;;;;;;12.30;99.82;102072.44;170658;29;1161;-67
2022/06/12 00:24:32;;;;;;;18.06;6.38;;;;;;;12.30;100.00;102066.34;170732;28;899;-67
2022/06/12 00:24:39;;;;;;;17.58;6.35;;;;;;;12.29;99.88;102065.50;170579;29;1307;-67
2022/06/12 00:24:44;;;;;;;17.82;6.38;;;;;;;12.29;100.00;102065.50;170713;29;1187;-67
2022/06/12 00:24:51;;;;;;;16.37;6.20;;;;;;;12.28;99.93;102069.00;170694;29;1010;-67
2022/06/12 00:24:57;;;;;;;15.94;6.10;;;;;;;12.27;99.83;102067.31;170677;29;990;-67
2022/06/12 00:25:06;;;;;;;15.52;6.00;;;;;;;12.28;100.00;102069.00;170676;29;943;-67
2022/06/12 00:25:15;;;;;;;15.50;6.00;;;;;;;12.28;100.00;102062.94;170693;29;1066;-69
2022/06/12 00:25:27;;;;;;;15.04;6.04;;;;;;;12.28;100.00;102062.94;170670;29;1075;-68
2022/06/12 00:25:33;;;;;;;14.94;6.04;;;;;;;12.27;100.00;102069.91;170664;29;1243;-68
2022/06/12 00:25:39;;;;;;;14.63;6.10;;;;;;;12.27;100.00;102067.31;170594;29;865;-68
2022/06/12 00:25:44;;;;;;;15.77;6.20;;;;;;;12.26;100.00;102068.22;170620;28;1063;-67
2022/06/12 00:25:50;;;;;;;16.70;6.37;;;;;;;12.27;100.00;102067.31;170568;29;864;-68
2022/06/12 00:25:55;;;;;;;16.20;6.40;;;;;;;12.27;100.00;102071.66;170707;29;777;-67
2022/06/12 00:26:01;;;;;;;16.03;6.30;;;;;;;12.27;100.00;102066.44;169944;29;941;-68
2022/06/12 00:26:07;;;;;;;17.05;6.43;;;;;;;12.26;100.00;102062.97;170023;29;928;-68
2022/06/12 00:26:17;;;;;;;15.98;6.35;;;;;;;12.25;100.00;102069.09;170030;29;861;-68
2022/06/12 00:26:26;;;;;;;16.08;6.23;;;;;;;12.25;100.00;102063.88;169267;29;1535;-67
2022/06/12 00:26:45;;;;;;;18.00;6.43;;;;;;;12.25;100.00;102066.47;169356;29;1026;-67
2022/06/12 00:26:55;;;;;;;17.42;6.50;;;;;;;12.25;100.00;102069.09;170017;29;1266;-68
2022/06/12 00:27:00;;;;;;;15.76;6.24;;;;;;;12.26;100.00;102067.34;169976;29;1190;-67
2022/06/12 00:27:07;;;;;;;15.67;6.03;;;;;;;12.25;100.00;102066.47;170039;29;920;-67
2022/06/12 00:27:12;;;;;;;16.10;5.90;;;;;;;12.24;100.00;102067.38;170043;29;904;-68
2022/06/12 00:27:18;;;;;;;14.57;5.77;;;;;;;12.26;100.00;102075.19;170048;29;963;-68
2022/06/12 00:27:24;;;;;;;15.00;6.10;;;;;;;12.25;100.00;102071.72;170636;29;1405;-67
2022/06/12 00:27:29;;;;;;;16.05;6.15;;;;;;;12.24;100.00;102067.38;170581;28;1397;-67
2022/06/12 00:27:36;;;;;;;16.55;6.13;;;;;;;12.24;100.00;102072.63;170641;29;940;-68
2022/06/12 00:27:42;;;;;;;15.55;6.00;;;;;;;12.24;100.00;102067.38;170550;29;900;-67
2022/06/12 00:27:48;;;;;;;16.46;6.14;;;;;;;12.24;100.00;102062.16;170063;29;1034;-68
2022/06/12 00:27:55;;;;;;;16.07;6.00;;;;;;;12.24;100.00;102067.38;170012;29;978;-67
2022/06/12 00:28:02;;;;;;;14.38;6.10;;;;;;;12.24;100.00;102067.38;170027;29;995;-67
2022/06/12 00:28:08;;;;;;;13.77;6.20;;;;;;;12.23;100.00;102065.69;170019;29;931;-68
2022/06/12 00:28:13;;;;;;;13.23;6.33;;;;;;;12.23;100.00;102069.16;169989;29;1194;-68
2022/06/12 00:28:19;;;;;;;12.77;6.32;;;;;;;12.23;100.00;102065.69;170107;29;742;-68
2022/06/12 00:28:24;;;;;;;13.03;6.53;;;;;;;12.23;100.00;102068.31;170021;29;1068;-68
2022/06/12 00:28:30;;;;;;;14.57;6.57;;;;;;;12.23;100.00;102065.69;170564;28;754;-67
2022/06/12 00:28:35;;;;;;;15.13;6.67;;;;;;;12.23;100.00;102065.69;170680;29;947;-67
2022/06/12 00:28:42;;;;;;;15.05;6.53;;;;;;;12.23;100.00;102070.91;170579;29;1338;-67
2022/06/12 00:28:48;;;;;;;15.30;6.57;;;;;;;12.23;100.00;102070.91;170752;29;884;-68
2022/06/12 00:29:20;;;;;;;15.32;6.50;;;;;;;12.23;100.00;102070.91;170682;29;1022;-68
2022/06/12 00:29:32;;;;;;;14.63;6.28;;;;;;;12.22;100.00;102069.22;169867;29;1249;-68
2022/06/12 00:29:38;;;;;;;15.65;6.35;;;;;;;12.22;100.00;102063.97;171336;28;1236;-67
2022/06/12 00:29:47;;;;;;;16.60;6.26;;;;;;;12.22;100.00;102061.38;171361;28;1007;-68
2022/06/12 00:29:52;;;;;;;17.40;6.33;;;;;;;12.22;100.00;102074.44;171345;28;1107;-67
2022/06/12 00:29:58;;;;;;;17.90;6.45;;;;;;;12.21;100.00;102062.25;171285;28;928;-68
2022/06/12 00:30:07;;;;;;;17.90;6.50;;;;;;;12.20;100.00;102066.63;170588;28;1015;-68
2022/06/12 00:30:17;;;;;;;18.50;6.57;;;;;;;12.21;100.00;102062.25;170697;29;967;-68
2022/06/12 00:30:25;;;;;;;16.81;6.40;;;;;;;12.21;100.00;102062.25;170668;29;1169;-67
2022/06/12 00:30:32;;;;;;;15.40;6.10;;;;;;;12.20;100.00;102071.00;170695;29;896;-68
2022/06/12 00:30:37;;;;;;;14.70;6.10;;;;;;;12.19;100.00;102075.41;170675;29;892;-68
2022/06/12 00:30:43;;;;;;;13.57;6.10;;;;;;;12.19;100.00;102064.06;170665;29;844;-67
2022/06/12 00:30:48;;;;;;;14.47;6.27;;;;;;;12.19;100.00;102069.28;170736;29;851;-67
2022/06/12 00:30:54;;;;;;;14.55;6.15;;;;;;;12.18;100.00;102063.19;170673;29;936;-67
2022/06/12 00:30:59;;;;;;;15.03;6.17;;;;;;;12.19;100.00;102064.06;170706;29;840;-68
2022/06/12 00:31:05;;;;;;;15.30;6.20;;;;;;;12.19;100.00;102064.06;170673;29;1080;-67
2022/06/12 00:31:11;;;;;;;15.63;6.10;;;;;;;12.18;100.00;102065.81;170685;29;879;-68
2022/06/12 00:31:17;;;;;;;16.80;6.30;;;;;;;12.18;100.00;102063.19;170660;29;931;-68
2022/06/12 00:31:22;;;;;;;16.90;6.33;;;;;;;12.18;100.00;102071.03;170686;29;844;-68
2022/06/12 00:31:31;;;;;;;16.80;6.40;;;;;;;12.18;100.00;102067.59;170678;29;927;-67
2022/06/12 00:31:42;;;;;;;18.00;6.64;;;;;;;12.18;100.00;102068.44;170662;29;1086;-67
2022/06/12 00:31:55;;;;;;;16.70;6.59;;;;;;;12.18;100.00;102063.19;170687;29;1245;-68
2022/06/12 00:32:10;;;;;;;16.39;6.56;;;;;;;12.17;100.00;102065.84;170652;29;1232;-68
2022/06/12 00:32:18;;;;;;;14.55;6.38;;;;;;;12.17;100.00;102061.50;170764;28;1244;-68
2022/06/12 00:32:25;;;;;;;13.58;6.10;;;;;;;12.17;100.00;102063.25;170594;29;1248;-68
2022/06/12 00:32:30;;;;;;;15.40;6.05;;;;;;;12.17;100.00;102065.84;170683;29;993;-68
2022/06/12 00:32:38;;;;;;;15.38;6.10;;;;;;;12.16;100.00;102065.00;170681;29;939;-68
2022/06/12 00:32:49;;;;;;;15.08;6.16;;;;;;;12.16;100.00;102065.00;170650;29;927;-67
2022/06/12 00:32:57;;;;;;;15.02;6.34;;;;;;;12.15;100.00;102057.22;170684;29;2211;-67
2022/06/12 00:33:03;;;;;;;13.50;6.37;;;;;;;12.15;100.00;102062.44;170653;29;983;-68
2022/06/12 00:33:08;;;;;;;14.77;6.65;;;;;;;12.15;100.00;102063.28;170704;29;860;-67
2022/06/12 00:33:14;;;;;;;14.53;6.63;;;;;;;12.14;100.00;102065.97;170688;29;841;-67
2022/06/12 00:33:19;;;;;;;14.27;6.70;;;;;;;12.14;100.00;102068.59;170685;29;852;-68
2022/06/12 00:33:25;;;;;;;14.33;6.63;;;;;;;12.12;100.00;102063.41;170687;29;852;-68
2022/06/12 00:33:32;;;;;;;15.25;6.75;;;;;;;12.11;100.00;102059.03;170640;29;971;-68
2022/06/12 00:33:38;;;;;;;15.10;6.53;;;;;;;12.10;100.00;102058.19;170691;29;942;-68